sensor_id;sensor_type;location;lat;lon;timestamp;P1;P2;P0
12542;PMS3003;6337;49.556;25.594;2022-10-16T00:01:45;28.10;8.80;
12542;PMS3003;6337;49.556;25.594;2022-10-16T00:04:13;13.60;8.33;
12542;PMS3003;6337;49.556;25.594;2022-10-16T00:06:41;14.27;8.20;
12542;PMS3003;6337;49.556;25.594;2022-10-16T00:09:10;21.73;10.03;
12542;PMS3003;6337;49.556;25.594;2022-10-16T00:11:39;15.00;8.43;
12542;PMS3003;6337;49.556;25.594;2022-10-16T00:14:07;18.30;7.83;
12542;PMS3003;6337;49.556;25.594;2022-10-16T00:16:36;15.77;9.70;
12542;PMS3003;6337;49.556;25.594;2022-10-16T00:19:04;19.20;8.60;
12542;PMS3003;6337;49.556;25.594;2022-10-16T00:21:32;21.70;8.77;
12542;PMS3003;6337;49.556;25.594;2022-10-16T00:24:01;12.40;8.80;
12542;PMS3003;6337;49.556;25.594;2022-10-16T00:26:30;17.53;10.07;
12542;PMS3003;6337;49.556;25.594;2022-10-16T00:29:00;22.03;7.73;
12542;PMS3003;6337;49.556;25.594;2022-10-16T00:31:27;20.33;8.17;
12542;PMS3003;6337;49.556;25.594;2022-10-16T00:33:55;18.03;7.60;
12542;PMS3003;6337;49.556;25.594;2022-10-16T00:36:23;11.30;7.60;
12542;PMS3003;6337;49.556;25.594;2022-10-16T00:38:51;14.70;8.87;
12542;PMS3003;6337;49.556;25.594;2022-10-16T00:41:19;9.57;7.33;
12542;PMS3003;6337;49.556;25.594;2022-10-16T00:43:48;13.83;7.23;
12542;PMS3003;6337;49.556;25.594;2022-10-16T00:46:18;9.07;7.07;
12542;PMS3003;6337;49.556;25.594;2022-10-16T00:48:48;16.23;8.17;
12542;PMS3003;6337;49.556;25.594;2022-10-16T00:51:18;9.13;6.30;
12542;PMS3003;6337;49.556;25.594;2022-10-16T00:53:49;16.50;7.17;
12542;PMS3003;6337;49.556;25.594;2022-10-16T00:56:17;17.90;8.70;
12542;PMS3003;6337;49.556;25.594;2022-10-16T00:58:44;16.20;6.83;
12542;PMS3003;6337;49.556;25.594;2022-10-16T01:01:12;12.87;7.43;
12542;PMS3003;6337;49.556;25.594;2022-10-16T01:03:41;16.37;8.10;
12542;PMS3003;6337;49.556;25.594;2022-10-16T01:06:11;15.40;8.30;
12542;PMS3003;6337;49.556;25.594;2022-10-16T01:09:03;10.93;6.33;
12542;PMS3003;6337;49.556;25.594;2022-10-16T01:11:49;16.70;8.67;
12542;PMS3003;6337;49.556;25.594;2022-10-16T01:14:22;12.57;7.40;
12542;PMS3003;6337;49.556;25.594;2022-10-16T01:16:53;18.53;9.20;
12542;PMS3003;6337;49.556;25.594;2022-10-16T01:19:30;14.43;6.83;
12542;PMS3003;6337;49.556;25.594;2022-10-16T01:22:13;17.40;8.40;
12542;PMS3003;6337;49.556;25.594;2022-10-16T01:24:42;16.40;8.33;
12542;PMS3003;6337;49.556;25.594;2022-10-16T01:27:13;16.53;9.27;
12542;PMS3003;6337;49.556;25.594;2022-10-16T01:29:44;12.83;8.00;
12542;PMS3003;6337;49.556;25.594;2022-10-16T01:32:17;9.60;6.07;
12542;PMS3003;6337;49.556;25.594;2022-10-16T01:34:57;15.03;7.87;
12542;PMS3003;6337;49.556;25.594;2022-10-16T01:37:32;17.60;9.00;
12542;PMS3003;6337;49.556;25.594;2022-10-16T01:40:02;12.57;6.80;
12542;PMS3003;6337;49.556;25.594;2022-10-16T01:42:35;12.20;7.63;
12542;PMS3003;6337;49.556;25.594;2022-10-16T01:45:05;9.90;7.70;
12542;PMS3003;6337;49.556;25.594;2022-10-16T01:47:36;22.93;10.33;
12542;PMS3003;6337;49.556;25.594;2022-10-16T01:50:06;13.37;6.90;
12542;PMS3003;6337;49.556;25.594;2022-10-16T01:52:35;16.00;9.07;
12542;PMS3003;6337;49.556;25.594;2022-10-16T01:55:04;13.00;7.30;
12542;PMS3003;6337;49.556;25.594;2022-10-16T01:57:35;11.23;6.47;
12542;PMS3003;6337;49.556;25.594;2022-10-16T02:00:05;10.63;7.13;
12542;PMS3003;6337;49.556;25.594;2022-10-16T02:02:36;13.57;7.13;
12542;PMS3003;6337;49.556;25.594;2022-10-16T02:05:08;12.03;7.10;
12542;PMS3003;6337;49.556;25.594;2022-10-16T02:07:39;15.13;8.73;
12542;PMS3003;6337;49.556;25.594;2022-10-16T02:10:07;12.13;7.40;
12542;PMS3003;6337;49.556;25.594;2022-10-16T02:12:36;29.63;8.20;
12542;PMS3003;6337;49.556;25.594;2022-10-16T02:15:07;11.50;6.67;
12542;PMS3003;6337;49.556;25.594;2022-10-16T02:17:35;10.80;7.90;
12542;PMS3003;6337;49.556;25.594;2022-10-16T02:20:03;12.93;8.30;
12542;PMS3003;6337;49.556;25.594;2022-10-16T02:22:33;10.97;6.40;
12542;PMS3003;6337;49.556;25.594;2022-10-16T02:25:04;13.80;7.30;
12542;PMS3003;6337;49.556;25.594;2022-10-16T02:27:36;10.07;7.93;
12542;PMS3003;6337;49.556;25.594;2022-10-16T02:30:08;10.00;7.67;
12542;PMS3003;6337;49.556;25.594;2022-10-16T02:32:39;11.63;7.93;
12542;PMS3003;6337;49.556;25.594;2022-10-16T02:35:10;15.00;7.53;
12542;PMS3003;6337;49.556;25.594;2022-10-16T02:37:38;19.70;8.33;
12542;PMS3003;6337;49.556;25.594;2022-10-16T02:40:08;14.17;7.90;
12542;PMS3003;6337;49.556;25.594;2022-10-16T02:42:38;19.50;8.13;
12542;PMS3003;6337;49.556;25.594;2022-10-16T02:45:07;15.63;8.47;
12542;PMS3003;6337;49.556;25.594;2022-10-16T02:47:36;15.93;8.60;
12542;PMS3003;6337;49.556;25.594;2022-10-16T02:50:04;17.07;8.33;
12542;PMS3003;6337;49.556;25.594;2022-10-16T02:52:31;13.83;7.33;
12542;PMS3003;6337;49.556;25.594;2022-10-16T02:54:59;18.73;9.80;
12542;PMS3003;6337;49.556;25.594;2022-10-16T02:57:26;18.57;7.03;
12542;PMS3003;6337;49.556;25.594;2022-10-16T02:59:55;17.33;9.60;
12542;PMS3003;6337;49.556;25.594;2022-10-16T03:02:23;12.47;8.20;
12542;PMS3003;6337;49.556;25.594;2022-10-16T03:04:51;16.00;8.80;
12542;PMS3003;6337;49.556;25.594;2022-10-16T03:07:18;14.60;8.83;
12542;PMS3003;6337;49.556;25.594;2022-10-16T03:09:46;16.63;7.77;
12542;PMS3003;6337;49.556;25.594;2022-10-16T03:12:13;17.83;8.27;
12542;PMS3003;6337;49.556;25.594;2022-10-16T03:14:41;13.57;8.10;
12542;PMS3003;6337;49.556;25.594;2022-10-16T03:17:10;12.47;7.80;
12542;PMS3003;6337;49.556;25.594;2022-10-16T03:19:38;12.40;9.23;
12542;PMS3003;6337;49.556;25.594;2022-10-16T03:22:06;7.37;6.60;
12542;PMS3003;6337;49.556;25.594;2022-10-16T03:24:34;14.70;8.87;
12542;PMS3003;6337;49.556;25.594;2022-10-16T03:27:01;11.40;8.10;
12542;PMS3003;6337;49.556;25.594;2022-10-16T03:29:29;14.30;8.57;
12542;PMS3003;6337;49.556;25.594;2022-10-16T03:31:57;14.87;8.07;
12542;PMS3003;6337;49.556;25.594;2022-10-16T03:34:26;10.47;7.63;
12542;PMS3003;6337;49.556;25.594;2022-10-16T03:36:54;12.67;8.57;
12542;PMS3003;6337;49.556;25.594;2022-10-16T03:39:22;19.33;9.10;
12542;PMS3003;6337;49.556;25.594;2022-10-16T03:41:49;22.37;8.60;
12542;PMS3003;6337;49.556;25.594;2022-10-16T03:44:16;12.80;8.10;
12542;PMS3003;6337;49.556;25.594;2022-10-16T03:46:44;12.17;9.00;
12542;PMS3003;6337;49.556;25.594;2022-10-16T03:49:11;14.20;8.67;
12542;PMS3003;6337;49.556;25.594;2022-10-16T03:51:41;17.83;9.70;
12542;PMS3003;6337;49.556;25.594;2022-10-16T03:54:09;13.13;8.00;
12542;PMS3003;6337;49.556;25.594;2022-10-16T03:56:36;17.23;9.33;
12542;PMS3003;6337;49.556;25.594;2022-10-16T03:59:03;19.77;9.00;
12542;PMS3003;6337;49.556;25.594;2022-10-16T04:01:31;17.63;9.80;
12542;PMS3003;6337;49.556;25.594;2022-10-16T04:03:58;22.50;11.03;
12542;PMS3003;6337;49.556;25.594;2022-10-16T04:06:26;20.17;10.70;
12542;PMS3003;6337;49.556;25.594;2022-10-16T04:08:56;18.90;9.67;
12542;PMS3003;6337;49.556;25.594;2022-10-16T04:11:23;16.97;9.40;
12542;PMS3003;6337;49.556;25.594;2022-10-16T04:13:50;22.40;10.00;
12542;PMS3003;6337;49.556;25.594;2022-10-16T04:16:17;25.63;9.50;
12542;PMS3003;6337;49.556;25.594;2022-10-16T04:18:45;15.20;9.57;
12542;PMS3003;6337;49.556;25.594;2022-10-16T04:21:13;17.73;10.73;
12542;PMS3003;6337;49.556;25.594;2022-10-16T04:23:42;11.83;8.17;
12542;PMS3003;6337;49.556;25.594;2022-10-16T04:26:13;18.87;9.00;
12542;PMS3003;6337;49.556;25.594;2022-10-16T04:28:40;14.40;8.83;
12542;PMS3003;6337;49.556;25.594;2022-10-16T04:31:07;14.73;8.83;
12542;PMS3003;6337;49.556;25.594;2022-10-16T04:33:35;17.53;8.07;
12542;PMS3003;6337;49.556;25.594;2022-10-16T04:36:03;23.00;10.40;
12542;PMS3003;6337;49.556;25.594;2022-10-16T04:38:31;18.30;8.63;
12542;PMS3003;6337;49.556;25.594;2022-10-16T04:40:59;22.47;9.07;
12542;PMS3003;6337;49.556;25.594;2022-10-16T04:43:27;18.03;8.70;
12542;PMS3003;6337;49.556;25.594;2022-10-16T04:45:55;14.27;9.77;
12542;PMS3003;6337;49.556;25.594;2022-10-16T04:48:23;19.70;9.87;
12542;PMS3003;6337;49.556;25.594;2022-10-16T04:50:50;10.27;9.17;
12542;PMS3003;6337;49.556;25.594;2022-10-16T04:53:17;15.90;9.27;
12542;PMS3003;6337;49.556;25.594;2022-10-16T04:55:45;14.33;9.60;
12542;PMS3003;6337;49.556;25.594;2022-10-16T04:58:13;12.30;8.60;
12542;PMS3003;6337;49.556;25.594;2022-10-16T05:00:42;14.23;9.03;
12542;PMS3003;6337;49.556;25.594;2022-10-16T05:03:11;11.67;8.67;
12542;PMS3003;6337;49.556;25.594;2022-10-16T05:05:42;10.60;7.57;
12542;PMS3003;6337;49.556;25.594;2022-10-16T05:08:10;17.87;8.00;
12542;PMS3003;6337;49.556;25.594;2022-10-16T05:10:38;14.47;8.70;
12542;PMS3003;6337;49.556;25.594;2022-10-16T05:13:06;19.07;10.30;
12542;PMS3003;6337;49.556;25.594;2022-10-16T05:15:33;12.37;8.63;
12542;PMS3003;6337;49.556;25.594;2022-10-16T05:18:03;13.57;9.93;
12542;PMS3003;6337;49.556;25.594;2022-10-16T05:20:37;16.43;8.80;
12542;PMS3003;6337;49.556;25.594;2022-10-16T05:23:07;16.53;9.43;
12542;PMS3003;6337;49.556;25.594;2022-10-16T05:25:35;16.93;8.73;
12542;PMS3003;6337;49.556;25.594;2022-10-16T05:28:04;14.97;9.50;
12542;PMS3003;6337;49.556;25.594;2022-10-16T05:30:32;15.13;10.23;
12542;PMS3003;6337;49.556;25.594;2022-10-16T05:33:04;18.63;9.73;
12542;PMS3003;6337;49.556;25.594;2022-10-16T05:35:31;16.47;8.40;
12542;PMS3003;6337;49.556;25.594;2022-10-16T05:38:07;14.17;8.90;
12542;PMS3003;6337;49.556;25.594;2022-10-16T05:40:36;17.07;10.00;
12542;PMS3003;6337;49.556;25.594;2022-10-16T05:43:04;14.70;8.30;
12542;PMS3003;6337;49.556;25.594;2022-10-16T05:45:33;14.03;8.33;
12542;PMS3003;6337;49.556;25.594;2022-10-16T05:48:01;18.33;9.23;
12542;PMS3003;6337;49.556;25.594;2022-10-16T05:50:29;21.80;7.80;
12542;PMS3003;6337;49.556;25.594;2022-10-16T05:52:56;15.23;8.93;
12542;PMS3003;6337;49.556;25.594;2022-10-16T05:55:24;17.03;9.83;
12542;PMS3003;6337;49.556;25.594;2022-10-16T05:57:54;14.20;7.70;
12542;PMS3003;6337;49.556;25.594;2022-10-16T06:00:22;14.93;9.27;
12542;PMS3003;6337;49.556;25.594;2022-10-16T06:02:49;22.37;8.23;
12542;PMS3003;6337;49.556;25.594;2022-10-16T06:05:17;11.13;8.07;
12542;PMS3003;6337;49.556;25.594;2022-10-16T06:07:46;14.07;7.73;
12542;PMS3003;6337;49.556;25.594;2022-10-16T06:10:13;13.50;8.00;
12542;PMS3003;6337;49.556;25.594;2022-10-16T06:12:40;13.13;9.57;
12542;PMS3003;6337;49.556;25.594;2022-10-16T06:15:08;18.53;8.30;
12542;PMS3003;6337;49.556;25.594;2022-10-16T06:17:36;12.60;7.93;
12542;PMS3003;6337;49.556;25.594;2022-10-16T06:20:03;9.23;7.70;
12542;PMS3003;6337;49.556;25.594;2022-10-16T06:22:31;13.17;8.47;
12542;PMS3003;6337;49.556;25.594;2022-10-16T06:25:02;24.77;8.90;
12542;PMS3003;6337;49.556;25.594;2022-10-16T06:27:30;18.53;9.17;
12542;PMS3003;6337;49.556;25.594;2022-10-16T06:29:57;12.80;7.53;
12542;PMS3003;6337;49.556;25.594;2022-10-16T06:32:24;19.23;9.67;
12542;PMS3003;6337;49.556;25.594;2022-10-16T06:34:53;15.50;8.03;
12542;PMS3003;6337;49.556;25.594;2022-10-16T06:37:20;15.57;9.47;
12542;PMS3003;6337;49.556;25.594;2022-10-16T06:39:48;11.03;8.07;
12542;PMS3003;6337;49.556;25.594;2022-10-16T06:42:21;15.20;9.80;
12542;PMS3003;6337;49.556;25.594;2022-10-16T06:44:49;19.93;9.00;
12542;PMS3003;6337;49.556;25.594;2022-10-16T06:47:16;11.90;8.60;
12542;PMS3003;6337;49.556;25.594;2022-10-16T06:49:45;13.23;8.30;
12542;PMS3003;6337;49.556;25.594;2022-10-16T06:52:12;20.53;8.80;
12542;PMS3003;6337;49.556;25.594;2022-10-16T06:54:40;19.10;8.60;
12542;PMS3003;6337;49.556;25.594;2022-10-16T06:57:07;20.50;9.97;
12542;PMS3003;6337;49.556;25.594;2022-10-16T06:59:36;9.77;7.03;
12542;PMS3003;6337;49.556;25.594;2022-10-16T07:02:03;12.23;8.67;
12542;PMS3003;6337;49.556;25.594;2022-10-16T07:04:32;12.83;8.30;
12542;PMS3003;6337;49.556;25.594;2022-10-16T07:06:59;19.53;8.00;
12542;PMS3003;6337;49.556;25.594;2022-10-16T07:09:27;19.47;8.63;
12542;PMS3003;6337;49.556;25.594;2022-10-16T07:11:54;11.10;8.23;
12542;PMS3003;6337;49.556;25.594;2022-10-16T07:14:22;12.07;8.10;
12542;PMS3003;6337;49.556;25.594;2022-10-16T07:16:50;19.50;9.00;
12542;PMS3003;6337;49.556;25.594;2022-10-16T07:19:18;9.53;7.40;
12542;PMS3003;6337;49.556;25.594;2022-10-16T07:21:45;11.20;8.13;
12542;PMS3003;6337;49.556;25.594;2022-10-16T07:24:14;16.00;9.10;
12542;PMS3003;6337;49.556;25.594;2022-10-16T07:26:43;11.83;8.40;
12542;PMS3003;6337;49.556;25.594;2022-10-16T07:29:12;16.10;8.50;
12542;PMS3003;6337;49.556;25.594;2022-10-16T07:31:41;16.80;8.87;
12542;PMS3003;6337;49.556;25.594;2022-10-16T07:34:11;14.93;7.57;
12542;PMS3003;6337;49.556;25.594;2022-10-16T07:36:38;17.07;9.13;
12542;PMS3003;6337;49.556;25.594;2022-10-16T07:39:06;17.37;7.43;
12542;PMS3003;6337;49.556;25.594;2022-10-16T07:41:34;17.07;7.97;
12542;PMS3003;6337;49.556;25.594;2022-10-16T07:44:02;11.80;7.83;
12542;PMS3003;6337;49.556;25.594;2022-10-16T07:46:35;13.53;7.60;
12542;PMS3003;6337;49.556;25.594;2022-10-16T07:49:02;8.37;7.20;
12542;PMS3003;6337;49.556;25.594;2022-10-16T07:51:31;11.73;8.10;
12542;PMS3003;6337;49.556;25.594;2022-10-16T07:54:00;17.23;8.37;
12542;PMS3003;6337;49.556;25.594;2022-10-16T07:56:28;10.77;6.93;
12542;PMS3003;6337;49.556;25.594;2022-10-16T07:58:57;10.03;6.80;
12542;PMS3003;6337;49.556;25.594;2022-10-16T08:01:25;12.80;7.17;
12542;PMS3003;6337;49.556;25.594;2022-10-16T08:03:53;9.53;6.70;
12542;PMS3003;6337;49.556;25.594;2022-10-16T08:06:22;9.50;6.60;
12542;PMS3003;6337;49.556;25.594;2022-10-16T08:08:54;21.97;6.47;
12542;PMS3003;6337;49.556;25.594;2022-10-16T08:11:23;10.30;6.33;
12542;PMS3003;6337;49.556;25.594;2022-10-16T08:13:51;10.70;7.37;
12542;PMS3003;6337;49.556;25.594;2022-10-16T08:16:18;10.63;6.43;
12542;PMS3003;6337;49.556;25.594;2022-10-16T08:18:46;14.37;6.17;
12542;PMS3003;6337;49.556;25.594;2022-10-16T08:21:18;7.20;6.50;
12542;PMS3003;6337;49.556;25.594;2022-10-16T08:23:48;9.83;5.93;
12542;PMS3003;6337;49.556;25.594;2022-10-16T08:29:03;22.37;6.47;
12542;PMS3003;6337;49.556;25.594;2022-10-16T08:31:30;12.43;6.60;
12542;PMS3003;6337;49.556;25.594;2022-10-16T08:34:06;10.00;6.53;
12542;PMS3003;6337;49.556;25.594;2022-10-16T08:36:33;10.10;6.73;
12542;PMS3003;6337;49.556;25.594;2022-10-16T08:39:03;8.10;5.60;
12542;PMS3003;6337;49.556;25.594;2022-10-16T08:41:37;16.70;7.00;
12542;PMS3003;6337;49.556;25.594;2022-10-16T08:44:31;11.10;5.47;
12542;PMS3003;6337;49.556;25.594;2022-10-16T08:47:12;6.73;5.77;
12542;PMS3003;6337;49.556;25.594;2022-10-16T08:49:45;9.63;5.60;
12542;PMS3003;6337;49.556;25.594;2022-10-16T08:52:38;8.37;6.33;
12542;PMS3003;6337;49.556;25.594;2022-10-16T08:55:08;10.40;6.00;
12542;PMS3003;6337;49.556;25.594;2022-10-16T08:57:49;15.20;6.20;
12542;PMS3003;6337;49.556;25.594;2022-10-16T09:00:18;8.43;5.83;
12542;PMS3003;6337;49.556;25.594;2022-10-16T09:02:49;6.87;5.17;
12542;PMS3003;6337;49.556;25.594;2022-10-16T09:05:29;8.93;5.57;
12542;PMS3003;6337;49.556;25.594;2022-10-16T09:08:14;7.13;5.97;
12542;PMS3003;6337;49.556;25.594;2022-10-16T09:10:46;7.27;5.77;
12542;PMS3003;6337;49.556;25.594;2022-10-16T09:13:26;8.17;5.80;
12542;PMS3003;6337;49.556;25.594;2022-10-16T09:15:58;9.00;5.57;
12542;PMS3003;6337;49.556;25.594;2022-10-16T09:18:30;6.27;5.63;
12542;PMS3003;6337;49.556;25.594;2022-10-16T09:21:05;8.10;6.30;
12542;PMS3003;6337;49.556;25.594;2022-10-16T09:23:36;12.37;5.93;
12542;PMS3003;6337;49.556;25.594;2022-10-16T09:26:04;11.83;6.43;
12542;PMS3003;6337;49.556;25.594;2022-10-16T09:28:37;11.57;5.50;
12542;PMS3003;6337;49.556;25.594;2022-10-16T09:31:12;14.90;5.73;
12542;PMS3003;6337;49.556;25.594;2022-10-16T09:33:47;7.80;5.90;
12542;PMS3003;6337;49.556;25.594;2022-10-16T09:36:20;8.90;6.13;
12542;PMS3003;6337;49.556;25.594;2022-10-16T09:38:48;12.90;5.13;
12542;PMS3003;6337;49.556;25.594;2022-10-16T09:41:17;14.40;5.43;
12542;PMS3003;6337;49.556;25.594;2022-10-16T09:43:53;7.13;5.40;
12542;PMS3003;6337;49.556;25.594;2022-10-16T09:46:24;8.50;4.77;
12542;PMS3003;6337;49.556;25.594;2022-10-16T09:48:53;14.50;5.40;
12542;PMS3003;6337;49.556;25.594;2022-10-16T09:51:22;10.57;5.93;
12542;PMS3003;6337;49.556;25.594;2022-10-16T09:53:57;7.77;5.33;
12542;PMS3003;6337;49.556;25.594;2022-10-16T09:56:27;12.60;5.30;
12542;PMS3003;6337;49.556;25.594;2022-10-16T09:59:02;9.33;6.30;
12542;PMS3003;6337;49.556;25.594;2022-10-16T10:01:35;10.57;6.00;
12542;PMS3003;6337;49.556;25.594;2022-10-16T10:04:04;8.03;5.53;
12542;PMS3003;6337;49.556;25.594;2022-10-16T10:06:33;10.27;5.83;
12542;PMS3003;6337;49.556;25.594;2022-10-16T10:09:13;10.07;5.10;
12542;PMS3003;6337;49.556;25.594;2022-10-16T10:11:52;11.20;6.23;
12542;PMS3003;6337;49.556;25.594;2022-10-16T10:14:28;8.20;4.50;
12542;PMS3003;6337;49.556;25.594;2022-10-16T10:17:11;8.27;4.93;
12542;PMS3003;6337;49.556;25.594;2022-10-16T10:20:18;10.53;5.90;
12542;PMS3003;6337;49.556;25.594;2022-10-16T10:22:52;16.63;6.17;
12542;PMS3003;6337;49.556;25.594;2022-10-16T10:31:10;11.53;5.43;
12542;PMS3003;6337;49.556;25.594;2022-10-16T10:33:43;9.00;5.40;
12542;PMS3003;6337;49.556;25.594;2022-10-16T10:36:20;27.53;6.10;
12542;PMS3003;6337;49.556;25.594;2022-10-16T10:38:56;10.23;5.10;
12542;PMS3003;6337;49.556;25.594;2022-10-16T10:41:47;5.87;5.07;
12542;PMS3003;6337;49.556;25.594;2022-10-16T10:44:18;7.03;5.10;
12542;PMS3003;6337;49.556;25.594;2022-10-16T10:46:50;25.20;6.07;
12542;PMS3003;6337;49.556;25.594;2022-10-16T10:49:28;5.90;4.70;
12542;PMS3003;6337;49.556;25.594;2022-10-16T10:52:07;10.60;4.03;
12542;PMS3003;6337;49.556;25.594;2022-10-16T10:54:51;9.37;5.27;
12542;PMS3003;6337;49.556;25.594;2022-10-16T10:57:25;11.90;7.47;
12542;PMS3003;6337;49.556;25.594;2022-10-16T11:00:03;6.63;5.50;
12542;PMS3003;6337;49.556;25.594;2022-10-16T11:05:41;4.80;3.73;
12542;PMS3003;6337;49.556;25.594;2022-10-16T11:08:11;5.03;4.20;
12542;PMS3003;6337;49.556;25.594;2022-10-16T11:10:47;8.40;3.70;
12542;PMS3003;6337;49.556;25.594;2022-10-16T11:13:23;11.00;4.87;
12542;PMS3003;6337;49.556;25.594;2022-10-16T11:15:58;8.53;4.93;
12542;PMS3003;6337;49.556;25.594;2022-10-16T11:18:42;9.03;4.33;
12542;PMS3003;6337;49.556;25.594;2022-10-16T11:21:15;5.07;3.00;
12542;PMS3003;6337;49.556;25.594;2022-10-16T11:23:48;7.53;4.53;
12542;PMS3003;6337;49.556;25.594;2022-10-16T11:26:28;6.33;3.90;
12542;PMS3003;6337;49.556;25.594;2022-10-16T11:28:58;17.80;3.83;
12542;PMS3003;6337;49.556;25.594;2022-10-16T11:31:29;13.27;4.30;
12542;PMS3003;6337;49.556;25.594;2022-10-16T11:34:04;12.40;4.30;
12542;PMS3003;6337;49.556;25.594;2022-10-16T11:36:39;6.00;4.70;
12542;PMS3003;6337;49.556;25.594;2022-10-16T11:39:14;4.77;3.63;
12542;PMS3003;6337;49.556;25.594;2022-10-16T11:41:47;11.07;4.47;
12542;PMS3003;6337;49.556;25.594;2022-10-16T11:44:25;6.13;3.60;
12542;PMS3003;6337;49.556;25.594;2022-10-16T11:47:12;8.43;3.80;
12542;PMS3003;6337;49.556;25.594;2022-10-16T11:49:55;12.00;4.80;
12542;PMS3003;6337;49.556;25.594;2022-10-16T11:52:36;4.07;3.77;
12542;PMS3003;6337;49.556;25.594;2022-10-16T11:55:09;9.33;4.50;
12542;PMS3003;6337;49.556;25.594;2022-10-16T11:57:46;5.23;3.93;
12542;PMS3003;6337;49.556;25.594;2022-10-16T12:00:21;5.03;3.00;
12542;PMS3003;6337;49.556;25.594;2022-10-16T12:02:56;8.40;5.10;
12542;PMS3003;6337;49.556;25.594;2022-10-16T12:05:32;5.87;4.70;
12542;PMS3003;6337;49.556;25.594;2022-10-16T12:08:06;7.73;3.47;
12542;PMS3003;6337;49.556;25.594;2022-10-16T12:10:39;18.07;5.00;
12542;PMS3003;6337;49.556;25.594;2022-10-16T12:16:03;4.20;3.20;
12542;PMS3003;6337;49.556;25.594;2022-10-16T12:18:31;10.63;3.87;
12542;PMS3003;6337;49.556;25.594;2022-10-16T12:21:00;4.10;3.37;
12542;PMS3003;6337;49.556;25.594;2022-10-16T12:23:33;25.43;4.30;
12542;PMS3003;6337;49.556;25.594;2022-10-16T12:26:09;6.83;4.43;
12542;PMS3003;6337;49.556;25.594;2022-10-16T12:28:37;7.17;3.93;
12542;PMS3003;6337;49.556;25.594;2022-10-16T12:31:08;9.40;3.93;
12542;PMS3003;6337;49.556;25.594;2022-10-16T12:33:56;7.77;4.90;
12542;PMS3003;6337;49.556;25.594;2022-10-16T12:36:29;10.30;4.63;
12542;PMS3003;6337;49.556;25.594;2022-10-16T12:39:02;6.43;4.97;
12542;PMS3003;6337;49.556;25.594;2022-10-16T12:41:34;7.20;3.87;
12542;PMS3003;6337;49.556;25.594;2022-10-16T12:44:20;16.83;5.10;
12542;PMS3003;6337;49.556;25.594;2022-10-16T12:46:50;5.93;4.60;
12542;PMS3003;6337;49.556;25.594;2022-10-16T12:49:21;6.77;3.80;
12542;PMS3003;6337;49.556;25.594;2022-10-16T12:51:56;14.00;2.87;
12542;PMS3003;6337;49.556;25.594;2022-10-16T12:54:25;11.03;3.67;
12542;PMS3003;6337;49.556;25.594;2022-10-16T12:57:03;10.43;4.00;
12542;PMS3003;6337;49.556;25.594;2022-10-16T12:59:38;8.70;3.97;
12542;PMS3003;6337;49.556;25.594;2022-10-16T13:02:19;6.33;4.00;
12542;PMS3003;6337;49.556;25.594;2022-10-16T13:05:02;8.20;3.47;
12542;PMS3003;6337;49.556;25.594;2022-10-16T13:10:23;9.07;3.37;
12542;PMS3003;6337;49.556;25.594;2022-10-16T13:13:12;5.87;2.90;
12542;PMS3003;6337;49.556;25.594;2022-10-16T13:15:46;11.73;3.17;
12542;PMS3003;6337;49.556;25.594;2022-10-16T13:18:18;4.13;3.07;
12542;PMS3003;6337;49.556;25.594;2022-10-16T13:20:52;7.53;3.40;
12542;PMS3003;6337;49.556;25.594;2022-10-16T13:23:25;5.77;3.00;
12542;PMS3003;6337;49.556;25.594;2022-10-16T13:26:01;9.10;2.80;
12542;PMS3003;6337;49.556;25.594;2022-10-16T13:28:33;17.13;3.20;
12542;PMS3003;6337;49.556;25.594;2022-10-16T13:31:02;12.73;3.10;
12542;PMS3003;6337;49.556;25.594;2022-10-16T13:33:35;7.60;3.40;
12542;PMS3003;6337;49.556;25.594;2022-10-16T13:36:05;7.33;3.30;
12542;PMS3003;6337;49.556;25.594;2022-10-16T13:38:34;5.63;2.80;
12542;PMS3003;6337;49.556;25.594;2022-10-16T13:41:05;8.60;3.10;
12542;PMS3003;6337;49.556;25.594;2022-10-16T13:43:35;3.90;2.80;
12542;PMS3003;6337;49.556;25.594;2022-10-16T13:46:14;3.50;2.80;
12542;PMS3003;6337;49.556;25.594;2022-10-16T13:48:55;6.40;3.53;
12542;PMS3003;6337;49.556;25.594;2022-10-16T13:51:25;7.57;3.20;
12542;PMS3003;6337;49.556;25.594;2022-10-16T13:53:57;14.87;3.10;
12542;PMS3003;6337;49.556;25.594;2022-10-16T13:56:27;7.40;2.83;
12542;PMS3003;6337;49.556;25.594;2022-10-16T13:58:59;6.00;4.47;
12542;PMS3003;6337;49.556;25.594;2022-10-16T14:01:29;10.87;2.77;
12542;PMS3003;6337;49.556;25.594;2022-10-16T14:04:07;6.60;3.90;
12542;PMS3003;6337;49.556;25.594;2022-10-16T14:06:44;11.57;3.90;
12542;PMS3003;6337;49.556;25.594;2022-10-16T14:09:31;5.87;3.27;
12542;PMS3003;6337;49.556;25.594;2022-10-16T14:12:07;14.43;3.50;
12542;PMS3003;6337;49.556;25.594;2022-10-16T14:14:45;11.63;3.80;
12542;PMS3003;6337;49.556;25.594;2022-10-16T14:17:13;4.13;2.57;
12542;PMS3003;6337;49.556;25.594;2022-10-16T14:19:49;8.80;3.93;
12542;PMS3003;6337;49.556;25.594;2022-10-16T14:22:28;10.63;4.07;
12542;PMS3003;6337;49.556;25.594;2022-10-16T14:25:01;9.17;2.77;
12542;PMS3003;6337;49.556;25.594;2022-10-16T14:27:32;4.50;2.53;
12542;PMS3003;6337;49.556;25.594;2022-10-16T14:30:17;3.77;3.00;
12542;PMS3003;6337;49.556;25.594;2022-10-16T14:32:53;2.93;2.63;
12542;PMS3003;6337;49.556;25.594;2022-10-16T14:35:24;3.73;3.10;
12542;PMS3003;6337;49.556;25.594;2022-10-16T14:37:55;7.00;2.90;
12542;PMS3003;6337;49.556;25.594;2022-10-16T14:40:24;4.73;2.60;
12542;PMS3003;6337;49.556;25.594;2022-10-16T14:42:53;14.20;3.33;
12542;PMS3003;6337;49.556;25.594;2022-10-16T14:45:27;6.10;2.80;
12542;PMS3003;6337;49.556;25.594;2022-10-16T14:47:57;5.70;3.37;
12542;PMS3003;6337;49.556;25.594;2022-10-16T14:50:30;9.63;4.40;
12542;PMS3003;6337;49.556;25.594;2022-10-16T14:53:00;7.33;4.70;
12542;PMS3003;6337;49.556;25.594;2022-10-16T14:55:28;26.80;4.37;
12542;PMS3003;6337;49.556;25.594;2022-10-16T14:57:57;6.27;3.53;
12542;PMS3003;6337;49.556;25.594;2022-10-16T15:00:25;4.10;2.97;
12542;PMS3003;6337;49.556;25.594;2022-10-16T15:02:53;5.83;3.50;
12542;PMS3003;6337;49.556;25.594;2022-10-16T15:05:28;9.30;3.77;
12542;PMS3003;6337;49.556;25.594;2022-10-16T15:07:58;14.70;4.57;
12542;PMS3003;6337;49.556;25.594;2022-10-16T15:10:30;13.63;3.87;
12542;PMS3003;6337;49.556;25.594;2022-10-16T15:13:02;6.37;5.00;
12542;PMS3003;6337;49.556;25.594;2022-10-16T15:15:35;9.37;4.00;
12542;PMS3003;6337;49.556;25.594;2022-10-16T15:18:05;6.30;3.10;
12542;PMS3003;6337;49.556;25.594;2022-10-16T15:20:33;4.60;3.10;
12542;PMS3003;6337;49.556;25.594;2022-10-16T15:23:03;18.00;3.80;
12542;PMS3003;6337;49.556;25.594;2022-10-16T15:25:36;10.20;3.30;
12542;PMS3003;6337;49.556;25.594;2022-10-16T15:28:07;6.73;3.53;
12542;PMS3003;6337;49.556;25.594;2022-10-16T15:30:38;14.87;4.83;
12542;PMS3003;6337;49.556;25.594;2022-10-16T15:33:10;15.23;5.20;
12542;PMS3003;6337;49.556;25.594;2022-10-16T15:35:45;12.23;3.80;
12542;PMS3003;6337;49.556;25.594;2022-10-16T15:38:16;8.30;3.10;
12542;PMS3003;6337;49.556;25.594;2022-10-16T15:40:45;7.33;3.07;
12542;PMS3003;6337;49.556;25.594;2022-10-16T15:43:14;4.87;2.90;
12542;PMS3003;6337;49.556;25.594;2022-10-16T15:45:44;14.90;3.63;
12542;PMS3003;6337;49.556;25.594;2022-10-16T15:48:35;13.23;4.07;